sensor_id;sensor_type;location;lat;lon;timestamp;P1;durP1;ratioP1;P2;durP2;ratioP2
12302;SDS011;6214;48.012;7.862;2023-04-10T00:00:01;18.08;;;4.90;;
12302;SDS011;6214;48.012;7.862;2023-04-10T00:02:29;18.20;;;4.70;;
12302;SDS011;6214;48.012;7.862;2023-04-10T00:04:56;17.60;;;4.35;;
12302;SDS011;6214;48.012;7.862;2023-04-10T00:07:24;18.20;;;4.90;;
12302;SDS011;6214;48.012;7.862;2023-04-10T00:09:51;18.00;;;4.90;;
12302;SDS011;6214;48.012;7.862;2023-04-10T00:12:18;18.55;;;5.00;;
12302;SDS011;6214;48.012;7.862;2023-04-10T00:14:46;18.65;;;4.40;;
12302;SDS011;6214;48.012;7.862;2023-04-10T00:17:13;18.13;;;4.82;;
12302;SDS011;6214;48.012;7.862;2023-04-10T00:19:39;18.70;;;4.60;;
12302;SDS011;6214;48.012;7.862;2023-04-10T00:22:06;18.30;;;4.43;;
12302;SDS011;6214;48.012;7.862;2023-04-10T00:24:33;17.95;;;4.45;;
12302;SDS011;6214;48.012;7.862;2023-04-10T00:27:00;18.45;;;5.20;;
12302;SDS011;6214;48.012;7.862;2023-04-10T00:29:27;18.05;;;4.72;;
12302;SDS011;6214;48.012;7.862;2023-04-10T00:31:54;18.33;;;5.05;;
12302;SDS011;6214;48.012;7.862;2023-04-10T00:34:21;18.00;;;4.50;;
12302;SDS011;6214;48.012;7.862;2023-04-10T00:36:49;18.33;;;4.80;;
12302;SDS011;6214;48.012;7.862;2023-04-10T00:39:16;18.30;;;4.88;;
12302;SDS011;6214;48.012;7.862;2023-04-10T00:41:43;18.10;;;4.88;;
12302;SDS011;6214;48.012;7.862;2023-04-10T00:44:10;18.08;;;4.90;;
12302;SDS011;6214;48.012;7.862;2023-04-10T00:46:37;18.27;;;4.70;;
12302;SDS011;6214;48.012;7.862;2023-04-10T00:49:05;17.90;;;4.40;;
12302;SDS011;6214;48.012;7.862;2023-04-10T00:51:35;17.90;;;4.90;;
12302;SDS011;6214;48.012;7.862;2023-04-10T00:54:02;18.67;;;5.00;;
12302;SDS011;6214;48.012;7.862;2023-04-10T00:56:29;17.60;;;4.53;;
12302;SDS011;6214;48.012;7.862;2023-04-10T00:58:59;18.10;;;4.60;;
12302;SDS011;6214;48.012;7.862;2023-04-10T01:01:30;18.30;;;4.70;;
12302;SDS011;6214;48.012;7.862;2023-04-10T01:03:57;18.30;;;4.63;;
12302;SDS011;6214;48.012;7.862;2023-04-10T01:06:32;18.30;;;4.55;;
12302;SDS011;6214;48.012;7.862;2023-04-10T01:12:14;18.47;;;4.70;;
12302;SDS011;6214;48.012;7.862;2023-04-10T01:15:07;17.80;;;4.28;;
12302;SDS011;6214;48.012;7.862;2023-04-10T01:20:36;17.50;;;4.10;;
12302;SDS011;6214;48.012;7.862;2023-04-10T01:26:46;17.40;;;4.00;;
12302;SDS011;6214;48.012;7.862;2023-04-10T01:29:10;18.20;;;4.50;;
12302;SDS011;6214;48.012;7.862;2023-04-10T01:34:32;17.40;;;4.10;;
12302;SDS011;6214;48.012;7.862;2023-04-10T01:37:07;45.70;;;24.93;;
12302;SDS011;6214;48.012;7.862;2023-04-10T01:39:38;41.70;;;24.27;;
12302;SDS011;6214;48.012;7.862;2023-04-10T01:42:08;27.50;;;10.93;;
12302;SDS011;6214;48.012;7.862;2023-04-10T01:44:40;57.80;;;30.77;;
12302;SDS011;6214;48.012;7.862;2023-04-10T01:47:08;34.75;;;15.43;;
12302;SDS011;6214;48.012;7.862;2023-04-10T01:49:35;36.20;;;16.92;;
12302;SDS011;6214;48.012;7.862;2023-04-10T01:52:13;199.10;;;91.63;;
12302;SDS011;6214;48.012;7.862;2023-04-10T01:54:41;91.90;;;40.10;;
12302;SDS011;6214;48.012;7.862;2023-04-10T01:57:10;259.73;;;121.32;;
12302;SDS011;6214;48.012;7.862;2023-04-10T01:59:40;215.70;;;125.32;;
12302;SDS011;6214;48.012;7.862;2023-04-10T02:02:07;150.57;;;84.32;;
12302;SDS011;6214;48.012;7.862;2023-04-10T02:04:37;264.40;;;146.52;;
12302;SDS011;6214;48.012;7.862;2023-04-10T02:07:09;209.30;;;117.53;;
12302;SDS011;6214;48.012;7.862;2023-04-10T02:12:17;35.90;;;16.35;;
12302;SDS011;6214;48.012;7.862;2023-04-10T02:14:55;73.53;;;40.40;;
12302;SDS011;6214;48.012;7.862;2023-04-10T02:17:30;58.00;;;29.05;;
12302;SDS011;6214;48.012;7.862;2023-04-10T02:19:59;38.58;;;18.33;;
12302;SDS011;6214;48.012;7.862;2023-04-10T02:22:26;30.33;;;13.55;;
12302;SDS011;6214;48.012;7.862;2023-04-10T02:24:54;28.65;;;12.10;;
12302;SDS011;6214;48.012;7.862;2023-04-10T02:27:40;24.10;;;9.03;;
12302;SDS011;6214;48.012;7.862;2023-04-10T02:30:07;17.90;;;4.45;;
12302;SDS011;6214;48.012;7.862;2023-04-10T02:32:35;17.52;;;4.10;;
12302;SDS011;6214;48.012;7.862;2023-04-10T02:35:02;18.10;;;4.22;;
12302;SDS011;6214;48.012;7.862;2023-04-10T02:37:30;18.30;;;4.13;;
12302;SDS011;6214;48.012;7.862;2023-04-10T02:39:58;18.05;;;4.40;;
12302;SDS011;6214;48.012;7.862;2023-04-10T02:42:25;17.60;;;4.10;;
12302;SDS011;6214;48.012;7.862;2023-04-10T02:44:52;18.23;;;4.20;;
12302;SDS011;6214;48.012;7.862;2023-04-10T02:47:19;18.40;;;4.30;;
12302;SDS011;6214;48.012;7.862;2023-04-10T02:49:46;17.50;;;4.00;;
12302;SDS011;6214;48.012;7.862;2023-04-10T02:52:13;18.03;;;4.40;;
12302;SDS011;6214;48.012;7.862;2023-04-10T02:54:41;17.70;;;4.30;;
12302;SDS011;6214;48.012;7.862;2023-04-10T02:57:08;17.50;;;4.00;;
12302;SDS011;6214;48.012;7.862;2023-04-10T02:59:35;17.58;;;4.10;;
12302;SDS011;6214;48.012;7.862;2023-04-10T03:02:03;18.00;;;4.40;;
12302;SDS011;6214;48.012;7.862;2023-04-10T03:04:32;17.40;;;4.00;;
12302;SDS011;6214;48.012;7.862;2023-04-10T03:07:00;17.70;;;4.13;;
12302;SDS011;6214;48.012;7.862;2023-04-10T03:09:27;17.40;;;3.78;;
12302;SDS011;6214;48.012;7.862;2023-04-10T03:11:54;17.50;;;4.00;;
12302;SDS011;6214;48.012;7.862;2023-04-10T03:14:21;17.50;;;3.95;;
12302;SDS011;6214;48.012;7.862;2023-04-10T03:16:48;18.00;;;4.40;;
12302;SDS011;6214;48.012;7.862;2023-04-10T03:19:15;17.73;;;4.13;;
12302;SDS011;6214;48.012;7.862;2023-04-10T03:21:42;18.00;;;4.38;;
12302;SDS011;6214;48.012;7.862;2023-04-10T03:24:11;18.45;;;4.82;;
12302;SDS011;6214;48.012;7.862;2023-04-10T03:26:41;21.10;;;7.60;;
12302;SDS011;6214;48.012;7.862;2023-04-10T03:29:08;19.15;;;5.57;;
12302;SDS011;6214;48.012;7.862;2023-04-10T03:31:35;18.08;;;4.47;;
12302;SDS011;6214;48.012;7.862;2023-04-10T03:34:02;18.38;;;4.70;;
12302;SDS011;6214;48.012;7.862;2023-04-10T03:36:29;18.00;;;4.60;;
12302;SDS011;6214;48.012;7.862;2023-04-10T03:38:56;17.65;;;4.20;;
12302;SDS011;6214;48.012;7.862;2023-04-10T03:41:23;18.10;;;4.40;;
12302;SDS011;6214;48.012;7.862;2023-04-10T03:43:51;17.63;;;4.10;;
12302;SDS011;6214;48.012;7.862;2023-04-10T03:46:18;17.92;;;4.28;;
12302;SDS011;6214;48.012;7.862;2023-04-10T03:48:45;17.90;;;4.60;;
12302;SDS011;6214;48.012;7.862;2023-04-10T03:51:12;18.73;;;4.30;;
12302;SDS011;6214;48.012;7.862;2023-04-10T03:53:39;18.30;;;4.60;;
12302;SDS011;6214;48.012;7.862;2023-04-10T03:56:07;18.13;;;4.70;;
12302;SDS011;6214;48.012;7.862;2023-04-10T03:58:34;17.80;;;4.30;;
12302;SDS011;6214;48.012;7.862;2023-04-10T04:01:01;17.80;;;4.27;;
12302;SDS011;6214;48.012;7.862;2023-04-10T04:03:28;17.90;;;4.55;;
12302;SDS011;6214;48.012;7.862;2023-04-10T04:05:55;17.80;;;4.20;;
12302;SDS011;6214;48.012;7.862;2023-04-10T04:08:22;17.70;;;4.28;;
12302;SDS011;6214;48.012;7.862;2023-04-10T04:10:49;18.45;;;4.90;;
12302;SDS011;6214;48.012;7.862;2023-04-10T04:13:16;18.00;;;4.60;;
12302;SDS011;6214;48.012;7.862;2023-04-10T04:15:43;18.92;;;5.00;;
12302;SDS011;6214;48.012;7.862;2023-04-10T04:18:10;18.50;;;4.90;;
12302;SDS011;6214;48.012;7.862;2023-04-10T04:20:37;18.50;;;4.70;;
12302;SDS011;6214;48.012;7.862;2023-04-10T04:23:04;18.50;;;4.90;;
12302;SDS011;6214;48.012;7.862;2023-04-10T04:25:31;18.02;;;4.80;;
12302;SDS011;6214;48.012;7.862;2023-04-10T04:27:58;18.97;;;4.63;;
12302;SDS011;6214;48.012;7.862;2023-04-10T04:30:25;18.80;;;4.90;;
12302;SDS011;6214;48.012;7.862;2023-04-10T04:32:52;18.73;;;4.70;;
12302;SDS011;6214;48.012;7.862;2023-04-10T04:35:18;18.98;;;4.90;;
12302;SDS011;6214;48.012;7.862;2023-04-10T04:37:46;19.52;;;5.10;;
12302;SDS011;6214;48.012;7.862;2023-04-10T04:40:13;19.20;;;4.97;;
12302;SDS011;6214;48.012;7.862;2023-04-10T04:42:40;18.58;;;4.88;;
12302;SDS011;6214;48.012;7.862;2023-04-10T04:45:07;18.70;;;4.80;;
12302;SDS011;6214;48.012;7.862;2023-04-10T04:47:34;18.42;;;4.90;;
12302;SDS011;6214;48.012;7.862;2023-04-10T04:50:01;18.08;;;4.82;;
12302;SDS011;6214;48.012;7.862;2023-04-10T04:52:29;18.35;;;5.00;;
12302;SDS011;6214;48.012;7.862;2023-04-10T04:54:57;18.30;;;4.90;;
12302;SDS011;6214;48.012;7.862;2023-04-10T04:57:24;18.45;;;4.90;;
12302;SDS011;6214;48.012;7.862;2023-04-10T04:59:51;17.98;;;4.53;;
12302;SDS011;6214;48.012;7.862;2023-04-10T05:02:18;18.40;;;4.70;;
12302;SDS011;6214;48.012;7.862;2023-04-10T05:04:48;18.33;;;4.80;;
12302;SDS011;6214;48.012;7.862;2023-04-10T05:07:15;18.95;;;5.10;;
12302;SDS011;6214;48.012;7.862;2023-04-10T05:09:42;18.25;;;4.60;;
12302;SDS011;6214;48.012;7.862;2023-04-10T05:12:09;19.20;;;4.72;;
12302;SDS011;6214;48.012;7.862;2023-04-10T05:14:36;18.52;;;5.07;;
12302;SDS011;6214;48.012;7.862;2023-04-10T05:17:02;19.70;;;5.72;;
12302;SDS011;6214;48.012;7.862;2023-04-10T05:19:29;18.50;;;5.35;;
12302;SDS011;6214;48.012;7.862;2023-04-10T05:21:56;20.00;;;5.80;;
12302;SDS011;6214;48.012;7.862;2023-04-10T05:24:23;19.83;;;6.05;;
12302;SDS011;6214;48.012;7.862;2023-04-10T05:26:50;19.30;;;6.00;;
12302;SDS011;6214;48.012;7.862;2023-04-10T05:29:17;20.70;;;5.80;;
12302;SDS011;6214;48.012;7.862;2023-04-10T05:31:45;19.40;;;5.80;;
12302;SDS011;6214;48.012;7.862;2023-04-10T05:34:12;19.00;;;5.40;;
12302;SDS011;6214;48.012;7.862;2023-04-10T05:36:39;19.98;;;6.03;;
12302;SDS011;6214;48.012;7.862;2023-04-10T05:39:06;19.20;;;5.70;;
12302;SDS011;6214;48.012;7.862;2023-04-10T05:41:33;18.97;;;5.40;;
12302;SDS011;6214;48.012;7.862;2023-04-10T05:44:00;18.50;;;5.10;;
12302;SDS011;6214;48.012;7.862;2023-04-10T05:46:27;19.48;;;5.68;;
12302;SDS011;6214;48.012;7.862;2023-04-10T05:48:54;19.15;;;5.40;;
12302;SDS011;6214;48.012;7.862;2023-04-10T05:51:21;18.98;;;5.32;;
12302;SDS011;6214;48.012;7.862;2023-04-10T05:53:49;18.40;;;5.10;;
12302;SDS011;6214;48.012;7.862;2023-04-10T05:56:16;19.13;;;5.60;;
12302;SDS011;6214;48.012;7.862;2023-04-10T05:58:43;18.83;;;5.70;;
12302;SDS011;6214;48.012;7.862;2023-04-10T06:01:10;18.60;;;5.20;;
12302;SDS011;6214;48.012;7.862;2023-04-10T06:03:38;18.42;;;5.03;;
12302;SDS011;6214;48.012;7.862;2023-04-10T06:06:06;18.65;;;4.90;;
12302;SDS011;6214;48.012;7.862;2023-04-10T06:08:33;18.40;;;5.10;;
12302;SDS011;6214;48.012;7.862;2023-04-10T06:11:00;19.00;;;5.50;;
12302;SDS011;6214;48.012;7.862;2023-04-10T06:13:27;19.17;;;5.13;;
12302;SDS011;6214;48.012;7.862;2023-04-10T06:15:54;18.33;;;4.60;;
12302;SDS011;6214;48.012;7.862;2023-04-10T06:18:21;18.20;;;4.60;;
12302;SDS011;6214;48.012;7.862;2023-04-10T06:20:48;18.20;;;4.72;;
12302;SDS011;6214;48.012;7.862;2023-04-10T06:23:15;18.13;;;4.50;;
12302;SDS011;6214;48.012;7.862;2023-04-10T06:25:42;17.90;;;4.50;;
12302;SDS011;6214;48.012;7.862;2023-04-10T06:28:09;18.00;;;4.60;;
12302;SDS011;6214;48.012;7.862;2023-04-10T06:30:36;18.08;;;4.50;;
12302;SDS011;6214;48.012;7.862;2023-04-10T06:33:03;17.75;;;4.50;;
12302;SDS011;6214;48.012;7.862;2023-04-10T06:35:30;18.00;;;4.45;;
12302;SDS011;6214;48.012;7.862;2023-04-10T06:37:58;18.02;;;4.50;;
12302;SDS011;6214;48.012;7.862;2023-04-10T06:40:25;17.70;;;4.50;;
12302;SDS011;6214;48.012;7.862;2023-04-10T06:42:54;18.60;;;4.83;;
12302;SDS011;6214;48.012;7.862;2023-04-10T06:45:21;18.10;;;4.80;;
12302;SDS011;6214;48.012;7.862;2023-04-10T06:47:49;18.60;;;4.50;;
12302;SDS011;6214;48.012;7.862;2023-04-10T06:50:16;18.00;;;4.65;;
12302;SDS011;6214;48.012;7.862;2023-04-10T06:52:43;17.92;;;4.80;;
12302;SDS011;6214;48.012;7.862;2023-04-10T06:55:11;17.70;;;4.40;;
12302;SDS011;6214;48.012;7.862;2023-04-10T06:57:38;18.88;;;4.90;;
12302;SDS011;6214;48.012;7.862;2023-04-10T07:00:06;17.90;;;4.60;;
12302;SDS011;6214;48.012;7.862;2023-04-10T07:02:33;17.85;;;4.68;;
12302;SDS011;6214;48.012;7.862;2023-04-10T07:05:00;18.73;;;4.63;;
12302;SDS011;6214;48.012;7.862;2023-04-10T07:07:27;18.38;;;5.00;;
12302;SDS011;6214;48.012;7.862;2023-04-10T07:09:54;18.63;;;4.57;;
12302;SDS011;6214;48.012;7.862;2023-04-10T07:12:23;18.25;;;4.78;;
12302;SDS011;6214;48.012;7.862;2023-04-10T07:14:50;18.27;;;4.63;;
12302;SDS011;6214;48.012;7.862;2023-04-10T07:17:17;18.05;;;4.70;;
12302;SDS011;6214;48.012;7.862;2023-04-10T07:19:44;17.77;;;4.35;;
12302;SDS011;6214;48.012;7.862;2023-04-10T07:22:11;17.60;;;4.13;;
12302;SDS011;6214;48.012;7.862;2023-04-10T07:24:38;18.38;;;4.57;;
12302;SDS011;6214;48.012;7.862;2023-04-10T07:27:05;18.35;;;4.40;;
12302;SDS011;6214;48.012;7.862;2023-04-10T07:29:32;17.98;;;4.30;;
12302;SDS011;6214;48.012;7.862;2023-04-10T07:31:59;17.63;;;4.20;;
12302;SDS011;6214;48.012;7.862;2023-04-10T07:34:26;17.70;;;4.20;;
12302;SDS011;6214;48.012;7.862;2023-04-10T07:36:53;17.70;;;4.05;;
12302;SDS011;6214;48.012;7.862;2023-04-10T07:39:20;17.95;;;4.53;;
12302;SDS011;6214;48.012;7.862;2023-04-10T07:41:47;17.85;;;4.40;;
12302;SDS011;6214;48.012;7.862;2023-04-10T07:44:14;17.92;;;4.60;;
12302;SDS011;6214;48.012;7.862;2023-04-10T07:46:42;18.10;;;4.80;;
12302;SDS011;6214;48.012;7.862;2023-04-10T07:49:09;18.75;;;4.68;;
12302;SDS011;6214;48.012;7.862;2023-04-10T07:51:37;17.50;;;4.45;;
12302;SDS011;6214;48.012;7.862;2023-04-10T07:54:04;17.40;;;4.40;;
12302;SDS011;6214;48.012;7.862;2023-04-10T07:56:31;17.50;;;4.70;;
12302;SDS011;6214;48.012;7.862;2023-04-10T07:58:58;17.40;;;4.70;;
12302;SDS011;6214;48.012;7.862;2023-04-10T08:01:26;17.40;;;4.50;;
12302;SDS011;6214;48.012;7.862;2023-04-10T08:03:54;18.03;;;4.50;;
12302;SDS011;6214;48.012;7.862;2023-04-10T08:06:24;17.25;;;3.90;;
12302;SDS011;6214;48.012;7.862;2023-04-10T08:08:51;17.02;;;3.90;;
12302;SDS011;6214;48.012;7.862;2023-04-10T08:13:51;17.08;;;4.40;;
12302;SDS011;6214;48.012;7.862;2023-04-10T08:16:25;17.90;;;4.75;;
12302;SDS011;6214;48.012;7.862;2023-04-10T08:18:54;17.00;;;4.32;;
12302;SDS011;6214;48.012;7.862;2023-04-10T08:21:24;16.60;;;4.10;;
12302;SDS011;6214;48.012;7.862;2023-04-10T08:23:53;16.90;;;4.30;;
12302;SDS011;6214;48.012;7.862;2023-04-10T08:26:20;17.23;;;4.70;;
12302;SDS011;6214;48.012;7.862;2023-04-10T08:28:48;16.80;;;4.30;;
12302;SDS011;6214;48.012;7.862;2023-04-10T08:31:17;17.20;;;4.80;;
12302;SDS011;6214;48.012;7.862;2023-04-10T08:33:45;17.20;;;4.80;;
12302;SDS011;6214;48.012;7.862;2023-04-10T08:36:12;17.10;;;4.70;;
12302;SDS011;6214;48.012;7.862;2023-04-10T08:38:44;17.20;;;4.83;;
12302;SDS011;6214;48.012;7.862;2023-04-10T08:41:13;16.80;;;4.22;;
12302;SDS011;6214;48.012;7.862;2023-04-10T08:43:41;17.20;;;4.70;;
12302;SDS011;6214;48.012;7.862;2023-04-10T08:46:08;17.55;;;5.10;;
12302;SDS011;6214;48.012;7.862;2023-04-10T08:51:18;17.60;;;4.40;;
12302;SDS011;6214;48.012;7.862;2023-04-10T08:53:53;17.53;;;4.70;;
12302;SDS011;6214;48.012;7.862;2023-04-10T08:56:26;17.40;;;4.70;;
12302;SDS011;6214;48.012;7.862;2023-04-10T08:58:53;17.60;;;5.13;;
12302;SDS011;6214;48.012;7.862;2023-04-10T09:01:20;17.40;;;4.57;;
12302;SDS011;6214;48.012;7.862;2023-04-10T09:03:48;22.85;;;5.30;;
12302;SDS011;6214;48.012;7.862;2023-04-10T09:06:16;17.70;;;4.60;;
12302;SDS011;6214;48.012;7.862;2023-04-10T09:08:43;17.17;;;4.30;;
12302;SDS011;6214;48.012;7.862;2023-04-10T09:11:10;17.30;;;4.60;;
12302;SDS011;6214;48.012;7.862;2023-04-10T09:13:39;17.20;;;4.80;;
12302;SDS011;6214;48.012;7.862;2023-04-10T09:16:08;17.00;;;4.70;;
12302;SDS011;6214;48.012;7.862;2023-04-10T09:18:46;16.73;;;4.20;;
12302;SDS011;6214;48.012;7.862;2023-04-10T09:21:16;16.80;;;4.20;;
12302;SDS011;6214;48.012;7.862;2023-04-10T09:23:47;16.58;;;3.65;;
12302;SDS011;6214;48.012;7.862;2023-04-10T09:26:28;17.38;;;4.30;;
12302;SDS011;6214;48.012;7.862;2023-04-10T09:29:05;16.60;;;3.60;;
12302;SDS011;6214;48.012;7.862;2023-04-10T09:31:33;16.90;;;3.50;;
12302;SDS011;6214;48.012;7.862;2023-04-10T09:34:14;16.70;;;3.90;;
12302;SDS011;6214;48.012;7.862;2023-04-10T09:36:55;16.80;;;4.20;;
12302;SDS011;6214;48.012;7.862;2023-04-10T09:39:35;17.00;;;4.10;;
12302;SDS011;6214;48.012;7.862;2023-04-10T09:42:09;16.70;;;3.78;;
12302;SDS011;6214;48.012;7.862;2023-04-10T09:44:40;17.30;;;4.10;;
12302;SDS011;6214;48.012;7.862;2023-04-10T09:52:16;17.40;;;3.70;;
12302;SDS011;6214;48.012;7.862;2023-04-10T09:54:45;17.00;;;3.80;;
12302;SDS011;6214;48.012;7.862;2023-04-10T09:57:13;16.80;;;3.60;;
12302;SDS011;6214;48.012;7.862;2023-04-10T09:59:46;17.40;;;4.30;;
12302;SDS011;6214;48.012;7.862;2023-04-10T10:02:18;17.10;;;3.65;;
12302;SDS011;6214;48.012;7.862;2023-04-10T10:04:47;16.80;;;3.50;;
12302;SDS011;6214;48.012;7.862;2023-04-10T10:07:15;16.77;;;3.20;;
12302;SDS011;6214;48.012;7.862;2023-04-10T10:09:46;16.83;;;3.30;;
12302;SDS011;6214;48.012;7.862;2023-04-10T10:12:15;16.60;;;3.30;;
12302;SDS011;6214;48.012;7.862;2023-04-10T10:17:35;16.70;;;3.25;;
12302;SDS011;6214;48.012;7.862;2023-04-10T10:20:09;16.30;;;2.70;;
12302;SDS011;6214;48.012;7.862;2023-04-10T10:22:38;16.60;;;2.60;;
12302;SDS011;6214;48.012;7.862;2023-04-10T10:25:06;17.30;;;2.70;;
12302;SDS011;6214;48.012;7.862;2023-04-10T10:27:35;16.30;;;3.03;;
12302;SDS011;6214;48.012;7.862;2023-04-10T10:30:04;16.55;;;3.10;;
12302;SDS011;6214;48.012;7.862;2023-04-10T10:32:52;17.23;;;3.10;;
12302;SDS011;6214;48.012;7.862;2023-04-10T10:35:19;17.80;;;3.70;;
12302;SDS011;6214;48.012;7.862;2023-04-10T10:37:48;16.52;;;3.10;;
12302;SDS011;6214;48.012;7.862;2023-04-10T10:43:26;16.60;;;3.30;;
12302;SDS011;6214;48.012;7.862;2023-04-10T10:46:28;16.70;;;3.30;;
12302;SDS011;6214;48.012;7.862;2023-04-10T10:49:01;16.60;;;3.40;;
12302;SDS011;6214;48.012;7.862;2023-04-10T10:54:30;17.60;;;3.20;;
12302;SDS011;6214;48.012;7.862;2023-04-10T10:56:59;16.58;;;3.10;;
12302;SDS011;6214;48.012;7.862;2023-04-10T11:00:13;16.65;;;3.45;;
12302;SDS011;6214;48.012;7.862;2023-04-10T11:02:17;17.08;;;3.30;;
12302;SDS011;6214;48.012;7.862;2023-04-10T11:04:46;16.70;;;3.60;;
12302;SDS011;6214;48.012;7.862;2023-04-10T11:07:14;17.70;;;3.80;;
12302;SDS011;6214;48.012;7.862;2023-04-10T11:12:18;16.65;;;3.55;;
12302;SDS011;6214;48.012;7.862;2023-04-10T11:14:59;17.50;;;3.67;;
12302;SDS011;6214;48.012;7.862;2023-04-10T11:17:47;16.65;;;3.40;;
12302;SDS011;6214;48.012;7.862;2023-04-10T11:20:16;17.00;;;3.80;;
12302;SDS011;6214;48.012;7.862;2023-04-10T11:23:18;17.80;;;4.07;;
12302;SDS011;6214;48.012;7.862;2023-04-10T11:25:51;17.10;;;4.30;;
12302;SDS011;6214;48.012;7.862;2023-04-10T11:28:32;17.80;;;4.40;;
12302;SDS011;6214;48.012;7.862;2023-04-10T11:31:15;17.00;;;4.03;;
12302;SDS011;6214;48.012;7.862;2023-04-10T11:33:48;16.60;;;3.60;;
12302;SDS011;6214;48.012;7.862;2023-04-10T11:36:25;17.80;;;4.50;;
12302;SDS011;6214;48.012;7.862;2023-04-10T11:41:40;17.27;;;4.10;;
12302;SDS011;6214;48.012;7.862;2023-04-10T11:44:51;17.20;;;3.90;;
12302;SDS011;6214;48.012;7.862;2023-04-10T11:47:04;17.40;;;4.30;;
12302;SDS011;6214;48.012;7.862;2023-04-10T11:49:32;17.27;;;3.90;;
12302;SDS011;6214;48.012;7.862;2023-04-10T11:52:00;16.92;;;3.50;;
12302;SDS011;6214;48.012;7.862;2023-04-10T11:54:27;17.10;;;3.50;;
12302;SDS011;6214;48.012;7.862;2023-04-10T11:57:01;17.15;;;3.70;;
12302;SDS011;6214;48.012;7.862;2023-04-10T11:59:31;17.20;;;3.50;;
12302;SDS011;6214;48.012;7.862;2023-04-10T12:02:09;16.70;;;3.30;;
12302;SDS011;6214;48.012;7.862;2023-04-10T12:04:41;17.13;;;3.58;;
12302;SDS011;6214;48.012;7.862;2023-04-10T12:07:09;16.77;;;3.53;;
12302;SDS011;6214;48.012;7.862;2023-04-10T12:09:37;17.80;;;3.30;;
12302;SDS011;6214;48.012;7.862;2023-04-10T12:12:05;17.20;;;3.77;;
12302;SDS011;6214;48.012;7.862;2023-04-10T12:14:34;17.30;;;3.90;;
12302;SDS011;6214;48.012;7.862;2023-04-10T12:17:06;16.90;;;3.70;;
12302;SDS011;6214;48.012;7.862;2023-04-10T12:19:34;17.10;;;3.70;;
12302;SDS011;6214;48.012;7.862;2023-04-10T12:22:03;17.38;;;4.07;;
12302;SDS011;6214;48.012;7.862;2023-04-10T12:27:23;17.43;;;3.77;;
12302;SDS011;6214;48.012;7.862;2023-04-10T12:29:54;17.40;;;4.40;;
12302;SDS011;6214;48.012;7.862;2023-04-10T12:32:23;16.85;;;3.65;;
12302;SDS011;6214;48.012;7.862;2023-04-10T12:34:56;17.33;;;3.92;;
12302;SDS011;6214;48.012;7.862;2023-04-10T12:37:25;16.80;;;3.72;;
12302;SDS011;6214;48.012;7.862;2023-04-10T12:40:15;17.25;;;4.00;;
12302;SDS011;6214;48.012;7.862;2023-04-10T12:42:42;18.48;;;4.18;;
12302;SDS011;6214;48.012;7.862;2023-04-10T12:45:09;16.90;;;3.65;;
12302;SDS011;6214;48.012;7.862;2023-04-10T12:47:43;17.00;;;3.60;;
12302;SDS011;6214;48.012;7.862;2023-04-10T12:50:13;17.60;;;4.15;;
12302;SDS011;6214;48.012;7.862;2023-04-10T12:52:42;17.30;;;3.70;;
12302;SDS011;6214;48.012;7.862;2023-04-10T12:55:26;17.30;;;3.97;;
12302;SDS011;6214;48.012;7.862;2023-04-10T12:57:54;16.80;;;3.40;;
12302;SDS011;6214;48.012;7.862;2023-04-10T13:00:22;17.00;;;3.40;;
12302;SDS011;6214;48.012;7.862;2023-04-10T13:02:50;16.97;;;3.50;;
12302;SDS011;6214;48.012;7.862;2023-04-10T13:05:18;16.70;;;3.10;;
12302;SDS011;6214;48.012;7.862;2023-04-10T13:07:46;16.57;;;2.93;;
12302;SDS011;6214;48.012;7.862;2023-04-10T13:10:18;16.00;;;2.20;;
12302;SDS011;6214;48.012;7.862;2023-04-10T13:12:45;15.90;;;2.10;;
12302;SDS011;6214;48.012;7.862;2023-04-10T13:15:12;15.80;;;2.00;;
12302;SDS011;6214;48.012;7.862;2023-04-10T13:17:39;15.70;;;1.70;;
12302;SDS011;6214;48.012;7.862;2023-04-10T13:20:08;15.50;;;1.50;;
12302;SDS011;6214;48.012;7.862;2023-04-10T13:22:35;15.30;;;1.20;;
12302;SDS011;6214;48.012;7.862;2023-04-10T13:25:03;15.60;;;1.42;;
12302;SDS011;6214;48.012;7.862;2023-04-10T13:27:30;15.50;;;1.40;;
12302;SDS011;6214;48.012;7.862;2023-04-10T13:29:57;15.20;;;1.17;;
12302;SDS011;6214;48.012;7.862;2023-04-10T13:32:24;15.30;;;1.30;;
12302;SDS011;6214;48.012;7.862;2023-04-10T13:34:51;15.30;;;1.30;;
12302;SDS011;6214;48.012;7.862;2023-04-10T13:37:20;15.70;;;1.55;;
12302;SDS011;6214;48.012;7.862;2023-04-10T13:39:47;15.60;;;1.50;;
12302;SDS011;6214;48.012;7.862;2023-04-10T13:42:13;15.80;;;1.40;;
12302;SDS011;6214;48.012;7.862;2023-04-10T13:44:40;15.50;;;1.50;;
12302;SDS011;6214;48.012;7.862;2023-04-10T13:47:07;15.30;;;1.20;;
12302;SDS011;6214;48.012;7.862;2023-04-10T13:49:34;15.50;;;1.40;;
12302;SDS011;6214;48.012;7.862;2023-04-10T13:52:01;15.40;;;1.60;;
12302;SDS011;6214;48.012;7.862;2023-04-10T13:54:28;16.10;;;1.90;;
12302;SDS011;6214;48.012;7.862;2023-04-10T13:56:55;15.75;;;1.80;;
12302;SDS011;6214;48.012;7.862;2023-04-10T13:59:24;15.70;;;1.90;;
12302;SDS011;6214;48.012;7.862;2023-04-10T14:01:51;15.53;;;1.60;;
12302;SDS011;6214;48.012;7.862;2023-04-10T14:04:18;15.80;;;1.90;;
12302;SDS011;6214;48.012;7.862;2023-04-10T14:06:45;15.50;;;1.60;;
12302;SDS011;6214;48.012;7.862;2023-04-10T14:09:13;15.60;;;1.80;;
12302;SDS011;6214;48.012;7.862;2023-04-10T14:11:41;15.50;;;1.70;;
12302;SDS011;6214;48.012;7.862;2023-04-10T14:14:08;15.70;;;1.90;;
12302;SDS011;6214;48.012;7.862;2023-04-10T14:16:34;15.63;;;1.90;;
12302;SDS011;6214;48.012;7.862;2023-04-10T14:19:02;17.15;;;2.20;;
12302;SDS011;6214;48.012;7.862;2023-04-10T14:21:28;15.90;;;1.92;;
12302;SDS011;6214;48.012;7.862;2023-04-10T14:23:57;15.70;;;2.10;;
12302;SDS011;6214;48.012;7.862;2023-04-10T14:26:25;16.10;;;2.20;;
12302;SDS011;6214;48.012;7.862;2023-04-10T14:28:52;15.80;;;2.17;;
12302;SDS011;6214;48.012;7.862;2023-04-10T14:31:19;16.08;;;2.10;;
12302;SDS011;6214;48.012;7.862;2023-04-10T14:33:46;16.05;;;2.35;;
12302;SDS011;6214;48.012;7.862;2023-04-10T14:36:14;16.52;;;2.45;;
12302;SDS011;6214;48.012;7.862;2023-04-10T14:38:41;16.15;;;2.50;;
12302;SDS011;6214;48.012;7.862;2023-04-10T14:41:08;16.50;;;2.40;;
12302;SDS011;6214;48.012;7.862;2023-04-10T14:43:35;15.90;;;2.20;;
12302;SDS011;6214;48.012;7.862;2023-04-10T14:46:03;15.95;;;2.10;;
12302;SDS011;6214;48.012;7.862;2023-04-10T14:48:30;15.98;;;2.13;;
12302;SDS011;6214;48.012;7.862;2023-04-10T14:50:57;17.00;;;2.40;;
12302;SDS011;6214;48.012;7.862;2023-04-10T14:53:24;16.20;;;2.28;;
12302;SDS011;6214;48.012;7.862;2023-04-10T14:55:51;16.00;;;2.13;;
12302;SDS011;6214;48.012;7.862;2023-04-10T14:58:18;15.73;;;2.10;;
12302;SDS011;6214;48.012;7.862;2023-04-10T15:00:45;16.10;;;2.10;;
12302;SDS011;6214;48.012;7.862;2023-04-10T15:03:12;15.90;;;2.00;;
12302;SDS011;6214;48.012;7.862;2023-04-10T15:05:39;15.90;;;2.30;;
12302;SDS011;6214;48.012;7.862;2023-04-10T15:08:06;16.70;;;2.20;;
12302;SDS011;6214;48.012;7.862;2023-04-10T15:10:33;16.00;;;2.30;;
12302;SDS011;6214;48.012;7.862;2023-04-10T15:13:00;19.15;;;2.38;;
12302;SDS011;6214;48.012;7.862;2023-04-10T15:15:27;16.10;;;2.20;;
12302;SDS011;6214;48.012;7.862;2023-04-10T15:17:54;16.45;;;2.33;;
12302;SDS011;6214;48.012;7.862;2023-04-10T15:20:21;16.42;;;2.30;;
12302;SDS011;6214;48.012;7.862;2023-04-10T15:22:48;16.40;;;2.40;;
12302;SDS011;6214;48.012;7.862;2023-04-10T15:25:15;16.73;;;2.45;;
12302;SDS011;6214;48.012;7.862;2023-04-10T15:27:42;16.50;;;2.40;;
12302;SDS011;6214;48.012;7.862;2023-04-10T15:30:09;17.20;;;2.50;;
12302;SDS011;6214;48.012;7.862;2023-04-10T15:32:36;16.75;;;2.70;;
12302;SDS011;6214;48.012;7.862;2023-04-10T15:35:04;16.40;;;2.70;;
12302;SDS011;6214;48.012;7.862;2023-04-10T15:37:33;16.90;;;2.50;;